Time;durP1;ratioP1;P1;durP2;ratioP2;P2;SDS_P1;SDS_P2;PMS_P1;PMS_P2;Temp;Humidity;BMP_temperature;BMP_pressure;BME280_temperature;BME280_humidity;BME280_pressure;Samples;Min_cycle;Max_cycle;Signal;HPM_P1;HPM_P2
2021/12/12 00:02:27;;;;;;;71.35;36.25;;;3.80;99.90;;;;;;5049408;28;20052;-79
2021/12/12 00:04:54;;;;;;;64.00;32.03;;;3.80;99.90;;;;;;5028027;28;20037;-79
2021/12/12 00:07:25;;;;;;;64.05;33.25;;;4.80;99.90;;;;;;5051212;28;20198;-79
2021/12/12 00:09:54;;;;;;;;;;;3.80;99.90;;;;;;5045509;28;20618;-79
2021/12/12 00:12:26;;;;;;;60.53;33.63;;;3.80;99.90;;;;;;5064559;28;19916;-79
2021/12/12 00:14:53;;;;;;;66.03;33.85;;;4.50;99.90;;;;;;5043937;28;20044;-79
2021/12/12 00:17:20;;;;;;;66.28;36.45;;;3.80;99.90;;;;;;5043802;28;20115;-79
2021/12/12 00:19:46;;;;;;;67.15;34.45;;;4.00;99.90;;;;;;5044912;28;20072;-79
2021/12/12 00:22:15;;;;;;;70.38;35.08;;;3.80;99.90;;;;;;5040912;28;20397;-79
2021/12/12 00:24:42;;;;;;;67.72;31.15;;;3.80;99.90;;;;;;5049860;28;20049;-79
2021/12/12 00:27:08;;;;;;;62.83;30.17;;;3.80;99.90;;;;;;5048000;28;20028;-79
2021/12/12 00:29:35;;;;;;;59.50;34.30;;;3.80;99.90;;;;;;5081037;28;20492;-79
2021/12/12 00:32:05;;;;;;;63.00;33.47;;;3.80;99.90;;;;;;5062953;28;20043;-79
2021/12/12 00:34:36;;;;;;;60.75;33.60;;;3.80;99.90;;;;;;5079211;28;20055;-79
2021/12/12 00:37:04;;;;;;;57.00;28.50;;;4.10;99.90;;;;;;5037962;28;20045;-79
2021/12/12 00:39:33;;;;;;;64.10;34.40;;;4.10;99.90;;;;;;5036068;28;20524;-79
2021/12/12 00:42:07;;;;;;;70.13;33.58;;;4.70;99.90;;;;;;5049661;28;20068;-79
2021/12/12 00:44:34;;;;;;;62.05;32.30;;;3.80;99.90;;;;;;5049522;28;20040;-79
2021/12/12 00:47:03;;;;;;;60.15;33.97;;;3.80;99.90;;;;;;5045793;28;20044;-79
2021/12/12 00:49:32;;;;;;;67.80;33.35;;;3.90;99.90;;;;;;5047528;28;20041;-79
2021/12/12 00:51:59;;;;;;;58.30;28.05;;;3.90;99.90;;;;;;5079953;28;20045;-79
2021/12/12 00:54:30;;;;;;;60.72;29.65;;;3.90;99.90;;;;;;5047860;28;20415;-79
2021/12/12 00:56:58;;;;;;;64.13;34.95;;;3.90;99.90;;;;;;5044957;28;20036;-79
2021/12/12 00:59:24;;;;;;;50.08;25.90;;;3.90;99.90;;;;;;5078798;28;20067;-79
2021/12/12 01:01:51;;;;;;;66.55;32.47;;;3.90;99.90;;;;;;5023999;28;20033;-79
2021/12/12 01:04:24;;;;;;;57.20;27.75;;;3.90;99.90;;;;;;5063577;28;20374;-79
2021/12/12 01:06:52;;;;;;;55.65;28.27;;;4.50;99.90;;;;;;5063335;28;20425;-79
2021/12/12 01:09:26;;;;;;;46.58;25.70;;;3.90;99.90;;;;;;5077462;28;20499;-79
2021/12/12 01:11:54;;;;;;;53.33;26.67;;;3.90;99.90;;;;;;5070757;28;20032;-79
2021/12/12 01:14:24;;;;;;;50.95;25.65;;;4.90;99.90;;;;;;5086321;28;20040;-79
2021/12/12 01:16:59;;;;;;;54.40;27.13;;;4.00;99.90;;;;;;5049469;28;20037;-79
2021/12/12 01:19:38;;;;;;;57.70;28.00;;;3.90;99.90;;;;;;5042815;28;20049;-79
2021/12/12 01:22:11;;;;;;;46.53;27.33;;;3.90;99.90;;;;;;5045831;28;20093;-79
2021/12/12 01:24:43;;;;;;;55.15;31.70;;;4.00;99.90;;;;;;5064675;28;20032;-79
2021/12/12 01:27:09;;;;;;;42.78;24.02;;;4.10;99.90;;;;;;5029019;28;20043;-80
2021/12/12 01:29:37;;;;;;;64.57;31.48;;;4.70;99.90;;;;;;5036932;28;20045;-79
2021/12/12 01:32:11;;;;;;;57.40;32.22;;;3.90;99.90;;;;;;5073508;28;20039;-79
2021/12/12 01:34:38;;;;;;;48.25;26.38;;;3.90;99.90;;;;;;5062240;28;20770;-79
2021/12/12 01:39:56;;;;;;;56.90;29.15;;;4.00;99.90;;;;;;5044915;28;20041;-78
2021/12/12 01:42:27;;;;;;;52.67;28.10;;;4.00;99.90;;;;;;5048713;28;20076;-79
2021/12/12 01:44:57;;;;;;;55.13;27.95;;;4.00;99.90;;;;;;5082463;28;20043;-79
2021/12/12 01:47:39;;;;;;;47.35;26.38;;;4.80;99.90;;;;;;5061114;28;20028;-80
2021/12/12 01:50:12;;;;;;;54.92;28.67;;;4.00;99.90;;;;;;5082778;28;20036;-79
2021/12/12 01:52:41;;;;;;;54.45;32.05;;;4.80;99.90;;;;;;5040533;28;20040;-79
2021/12/12 01:55:24;;;;;;;36.92;19.52;;;3.90;99.90;;;;;;5057707;28;20109;-79
2021/12/12 01:57:53;;;;;;;47.00;25.27;;;4.00;99.90;;;;;;5052216;28;20629;-78
2021/12/12 02:00:30;;;;;;;60.90;29.90;;;4.30;99.90;;;;;;5023621;28;20041;-79
2021/12/12 02:02:57;;;;;;;59.75;29.08;;;4.00;99.90;;;;;;5043210;28;20032;-79
2021/12/12 02:05:25;;;;;;;57.50;29.15;;;4.40;99.90;;;;;;5059402;28;20033;-79
2021/12/12 02:08:03;;;;;;;48.00;23.42;;;4.00;99.90;;;;;;5049741;28;20438;-79
2021/12/12 02:10:36;;;;;;;53.85;26.55;;;4.00;99.90;;;;;;5030783;28;20047;-79
2021/12/12 02:13:06;;;;;;;39.28;22.08;;;4.00;99.90;;;;;;5046833;28;20538;-79
2021/12/12 02:15:35;;;;;;;58.53;26.95;;;4.00;99.90;;;;;;5038947;28;20134;-79
2021/12/12 02:18:09;;;;;;;41.75;21.27;;;4.00;99.90;;;;;;5038709;28;20044;-79
2021/12/12 02:20:43;;;;;;;40.85;22.58;;;4.10;99.90;;;;;;5032563;28;20127;-79
2021/12/12 02:23:28;;;;;;;51.45;30.40;;;4.20;99.90;;;;;;5068629;28;20092;-79
2021/12/12 02:37:00;;;;;;;42.05;22.40;;;4.00;99.90;;;;;;5080374;28;19916;-79
2021/12/12 02:39:26;;;;;;;49.50;27.10;;;4.10;99.90;;;;;;5034482;28;20136;-79
2021/12/12 02:41:56;;;;;;;56.05;26.65;;;4.00;99.90;;;;;;5068433;28;20044;-78
2021/12/12 02:44:28;;;;;;;58.60;30.38;;;4.20;99.90;;;;;;5071206;28;20032;-79
2021/12/12 02:46:58;;;;;;;45.03;24.63;;;4.50;99.90;;;;;;5049972;28;20045;-79
2021/12/12 02:49:53;;;;;;;40.20;20.73;;;4.10;99.90;;;;;;5079959;28;20099;-79
2021/12/12 02:52:29;;;;;;;48.85;25.67;;;4.00;99.90;;;;;;5046176;28;20037;-78
2021/12/12 02:55:01;;;;;;;45.05;24.02;;;4.10;99.90;;;;;;5067158;28;20052;-78
2021/12/12 02:57:28;;;;;;;48.25;24.75;;;4.30;99.90;;;;;;5031553;28;20484;-78
2021/12/12 02:59:54;;;;;;;47.45;24.27;;;4.10;99.90;;;;;;5032522;28;20040;-79
2021/12/12 03:02:30;;;;;;;32.67;18.83;;;4.10;99.90;;;;;;5085497;28;20036;-79
2021/12/12 03:04:58;;;;;;;42.03;22.85;;;4.20;99.90;;;;;;5087067;28;20146;-79
2021/12/12 03:07:25;;;;;;;40.00;23.90;;;4.20;99.90;;;;;;5036372;28;20044;-78
2021/12/12 03:09:55;;;;;;;39.45;21.77;;;4.20;99.90;;;;;;5041099;28;20056;-78
2021/12/12 03:12:30;;;;;;;44.95;22.92;;;4.20;99.90;;;;;;5053319;28;20044;-78
2021/12/12 03:14:59;;;;;;;35.83;17.52;;;4.20;99.90;;;;;;5040966;28;20048;-79
2021/12/12 03:17:25;;;;;;;32.47;19.25;;;4.20;99.90;;;;;;5062373;28;20063;-78
2021/12/12 03:19:58;;;;;;;38.50;20.45;;;3.20;99.90;;;;;;5040611;28;20084;-78
2021/12/12 03:22:25;;;;;;;34.17;17.23;;;4.20;99.90;;;;;;5043784;28;20492;-78
2021/12/12 03:24:51;;;;;;;37.42;20.98;;;4.30;99.90;;;;;;5030392;28;20125;-79
2021/12/12 03:27:20;;;;;;;42.58;19.42;;;4.30;99.90;;;;;;5047878;28;20437;-79
2021/12/12 03:29:48;;;;;;;40.88;18.92;;;4.30;99.90;;;;;;5078153;28;20143;-79
2021/12/12 03:32:19;;;;;;;35.15;18.90;;;4.80;99.90;;;;;;5061886;28;20044;-79
2021/12/12 03:34:58;;;;;;;29.58;14.90;;;5.10;99.90;;;;;;5079999;28;20157;-78
2021/12/12 03:37:27;;;;;;;36.75;17.88;;;4.30;99.90;;;;;;5053180;28;20447;-78
2021/12/12 03:39:56;;;;;;;36.95;18.15;;;4.30;99.90;;;;;;5080102;28;20103;-79
2021/12/12 03:42:25;;;;;;;29.38;15.77;;;4.40;99.90;;;;;;5085902;28;20029;-78
2021/12/12 03:44:53;;;;;;;21.73;13.13;;;4.40;99.90;;;;;;5034031;28;20074;-78
2021/12/12 03:47:32;;;;;;;34.13;19.23;;;4.40;99.90;;;;;;5030982;28;20036;-79
2021/12/12 03:50:00;;;;;;;35.13;16.23;;;4.70;99.90;;;;;;5041335;28;20071;-79
2021/12/12 03:52:27;;;;;;;25.15;12.85;;;4.40;99.90;;;;;;5050534;28;20044;-79
2021/12/12 03:54:57;;;;;;;35.15;17.85;;;5.10;99.90;;;;;;5046224;28;20057;-79
2021/12/12 03:57:22;;;;;;;21.65;11.93;;;4.50;99.90;;;;;;5065815;28;20036;-79
2021/12/12 03:59:48;;;;;;;27.25;15.15;;;6.00;99.90;;;;;;5033291;28;20090;-79
2021/12/12 04:02:14;;;;;;;33.13;15.93;;;4.50;99.90;;;;;;5045329;28;20068;-79
2021/12/12 04:04:43;;;;;;;27.67;13.15;;;4.80;99.90;;;;;;5025840;28;20090;-79
2021/12/12 04:07:17;;;;;;;26.85;13.52;;;4.50;99.90;;;;;;5046393;28;20056;-79
2021/12/12 04:09:43;;;;;;;29.58;15.80;;;4.60;99.90;;;;;;5048537;28;20051;-79
2021/12/12 04:12:11;;;;;;;28.48;14.90;;;4.70;99.90;;;;;;5077442;28;20037;-79
2021/12/12 04:14:37;;;;;;;26.23;14.25;;;4.60;99.90;;;;;;5051298;28;20062;-79
2021/12/12 04:17:06;;;;;;;24.45;13.20;;;4.60;99.90;;;;;;5061203;28;20051;-79
2021/12/12 04:19:33;;;;;;;28.13;15.02;;;4.70;99.90;;;;;;5053981;28;20045;-79
2021/12/12 04:22:01;;;;;;;18.63;10.45;;;5.60;99.90;;;;;;5046230;28;20058;-79
2021/12/12 04:24:29;;;;;;;11.65;5.75;;;4.80;99.90;;;;;;5050751;28;20500;-79
2021/12/12 04:26:56;;;;;;;24.77;13.23;;;4.60;99.90;;;;;;5030682;28;20037;-79
2021/12/12 04:29:28;;;;;;;24.92;14.32;;;4.60;99.90;;;;;;5032300;28;20083;-79
2021/12/12 04:31:56;;;;;;;24.75;13.15;;;5.00;99.90;;;;;;5075394;28;20604;-79
2021/12/12 04:34:25;;;;;;;17.58;9.35;;;4.60;99.90;;;;;;5047078;28;20063;-79
2021/12/12 04:36:53;;;;;;;29.92;13.35;;;4.70;99.90;;;;;;5062887;28;20528;-79
2021/12/12 04:39:29;;;;;;;23.13;12.48;;;5.60;99.90;;;;;;5047346;28;20119;-79
2021/12/12 04:41:59;;;;;;;20.33;10.75;;;4.70;99.90;;;;;;5052623;28;20037;-79
2021/12/12 04:44:30;;;;;;;21.63;13.73;;;4.70;99.90;;;;;;5049856;28;20107;-79
2021/12/12 04:50:30;;;;;;;21.35;10.73;;;4.70;99.90;;;;;;5080282;28;20044;-79
2021/12/12 04:53:52;;;;;;;23.08;13.52;;;4.70;99.90;;;;;;5049307;28;20048;-79
2021/12/12 04:56:29;;;;;;;20.58;11.85;;;5.00;99.90;;;;;;4974051;28;20104;-79
2021/12/12 04:59:12;;;;;;;21.10;12.40;;;5.60;99.90;;;;;;5057381;28;20055;-79
2021/12/12 05:02:01;;;;;;;20.95;12.90;;;4.70;99.90;;;;;;5049585;28;20373;-79
2021/12/12 05:04:52;;;;;;;19.63;10.38;;;4.70;99.90;;;;;;5039521;28;20049;-79
2021/12/12 05:07:30;;;;;;;16.23;9.25;;;4.70;99.90;;;;;;5078103;28;20040;-80
2021/12/12 05:10:24;;;;;;;19.45;11.98;;;4.70;99.90;;;;;;5066727;28;20037;-79
2021/12/12 05:13:05;;;;;;;20.38;11.20;;;5.40;99.90;;;;;;5057595;28;20397;-79
2021/12/12 05:15:36;;;;;;;16.48;10.20;;;4.80;99.90;;;;;;5064711;28;20040;-79
2021/12/12 05:18:08;;;;;;;15.98;9.98;;;5.20;99.90;;;;;;5018720;28;20080;-79
2021/12/12 05:20:42;;;;;;;19.02;8.85;;;4.80;99.90;;;;;;5027906;28;20036;-79
2021/12/12 05:23:12;;;;;;;14.00;9.75;;;5.80;99.90;;;;;;5078220;28;20407;-79
2021/12/12 05:25:47;;;;;;;15.83;9.93;;;4.80;99.90;;;;;;5030530;28;20476;-79
2021/12/12 05:28:16;;;;;;;18.13;10.82;;;5.30;99.90;;;;;;5082873;28;20036;-78
2021/12/12 05:30:43;;;;;;;19.40;12.05;;;6.00;99.90;;;;;;5064840;28;20036;-79
2021/12/12 05:33:12;;;;;;;13.27;8.55;;;4.80;99.90;;;;;;5035475;28;20032;-79
2021/12/12 05:35:39;;;;;;;12.52;8.98;;;5.00;99.90;;;;;;5083409;28;20048;-80
2021/12/12 05:38:07;;;;;;;15.93;9.95;;;4.90;99.90;;;;;;5026544;28;20137;-79
2021/12/12 05:40:36;;;;;;;14.88;8.80;;;4.90;99.90;;;;;;5070343;28;20044;-79
2021/12/12 05:43:04;;;;;;;7.60;5.53;;;4.90;99.90;;;;;;5048229;28;20033;-79
2021/12/12 05:45:32;;;;;;;15.88;8.35;;;5.00;99.90;;;;;;5075873;28;20025;-79
2021/12/12 05:47:59;;;;;;;16.15;10.98;;;4.90;99.90;;;;;;5048732;28;20174;-78
2021/12/12 05:50:26;;;;;;;16.10;9.88;;;4.90;99.90;;;;;;5064739;28;20048;-79
2021/12/12 05:52:54;;;;;;;11.98;8.95;;;4.90;99.90;;;;;;5044733;28;20048;-79
2021/12/12 05:55:26;;;;;;;14.48;8.85;;;5.00;99.90;;;;;;5025069;28;20057;-79
2021/12/12 05:57:55;;;;;;;11.93;9.32;;;5.00;99.90;;;;;;5041294;28;20044;-79
2021/12/12 06:00:26;;;;;;;14.90;10.00;;;5.30;99.90;;;;;;5060050;28;20045;-79
2021/12/12 06:02:52;;;;;;;;;;;5.20;99.90;;;;;;5057915;28;20123;-79
2021/12/12 06:05:18;;;;;;;10.55;7.28;;;6.00;99.90;;;;;;5078690;28;20292;-79
2021/12/12 06:07:45;;;;;;;15.52;8.60;;;5.10;99.90;;;;;;5078964;28;20033;-79
2021/12/12 06:10:13;;;;;;;12.25;7.45;;;5.80;99.90;;;;;;5045785;28;20120;-79
2021/12/12 06:12:40;;;;;;;12.10;8.32;;;6.10;99.90;;;;;;5026470;28;20060;-79
2021/12/12 06:15:16;;;;;;;12.57;7.65;;;5.10;99.90;;;;;;5025877;28;20665;-79
2021/12/12 06:17:45;;;;;;;12.93;8.23;;;5.90;99.90;;;;;;5043923;28;20107;-79
2021/12/12 06:20:13;;;;;;;8.52;5.00;;;5.20;99.90;;;;;;5011588;28;20063;-79
2021/12/12 06:22:39;;;;;;;11.98;7.10;;;5.90;99.90;;;;;;5024719;28;20392;-79
2021/12/12 06:25:06;;;;;;;11.38;6.55;;;5.20;99.90;;;;;;4979331;28;20094;-79
2021/12/12 06:27:32;;;;;;;6.93;4.30;;;5.20;99.90;;;;;;5061308;28;20040;-79
2021/12/12 06:29:58;;;;;;;12.88;7.35;;;5.20;99.90;;;;;;5044835;28;20049;-79
2021/12/12 06:32:25;;;;;;;9.35;5.78;;;5.30;99.90;;;;;;4994887;28;20858;-79
2021/12/12 06:34:55;;;;;;;10.95;6.55;;;5.30;99.90;;;;;;5034659;28;20561;-79
2021/12/12 06:37:21;;;;;;;12.50;8.57;;;6.10;99.90;;;;;;5028131;28;20073;-79
2021/12/12 06:39:49;;;;;;;12.60;8.70;;;5.20;99.90;;;;;;5020974;28;20048;-79
2021/12/12 06:42:16;;;;;;;10.45;7.13;;;5.30;99.90;;;;;;5020404;28;20040;-79
2021/12/12 06:44:42;;;;;;;13.80;8.63;;;5.30;99.90;;;;;;5012176;28;20037;-79
2021/12/12 06:47:09;;;;;;;11.48;8.40;;;6.30;99.90;;;;;;5024059;28;20044;-79
2021/12/12 06:49:37;;;;;;;13.60;8.90;;;5.30;99.90;;;;;;5060161;28;20090;-79
2021/12/12 06:52:06;;;;;;;10.98;8.38;;;5.30;99.90;;;;;;5011321;28;20053;-79
2021/12/12 06:54:32;;;;;;;12.82;9.00;;;5.40;99.90;;;;;;5007207;28;20065;-79
2021/12/12 06:57:02;;;;;;;11.00;8.00;;;5.40;99.90;;;;;;5010803;28;20400;-79
2021/12/12 06:59:30;;;;;;;12.35;8.70;;;5.40;99.90;;;;;;5003596;28;20048;-79
2021/12/12 07:01:56;;;;;;;13.30;9.02;;;5.40;99.90;;;;;;5033109;28;20040;-79
2021/12/12 07:04:23;;;;;;;14.52;9.35;;;5.40;99.90;;;;;;5006211;28;20040;-79
2021/12/12 07:06:54;;;;;;;10.20;5.95;;;5.60;99.90;;;;;;5010116;28;20086;-79
2021/12/12 07:09:19;;;;;;;;;;;5.40;99.90;;;;;;5030838;28;20496;-79
2021/12/12 07:11:46;;;;;;;10.15;7.28;;;5.50;99.90;;;;;;5032096;28;19916;-78
2021/12/12 07:14:15;;;;;;;12.63;8.63;;;5.60;99.90;;;;;;5014536;28;20037;-79
2021/12/12 07:16:45;;;;;;;12.77;7.95;;;5.50;99.90;;;;;;5060559;28;20038;-78
2021/12/12 07:19:12;;;;;;;11.55;8.05;;;5.50;99.90;;;;;;5047567;28;20037;-77
2021/12/12 07:21:38;;;;;;;11.27;7.40;;;5.60;99.90;;;;;;5013464;28;20033;-76
2021/12/12 07:24:04;;;;;;;12.95;8.52;;;5.60;99.90;;;;;;5027563;28;20055;-78
2021/12/12 07:26:31;;;;;;;12.88;9.07;;;5.60;99.90;;;;;;5028641;28;20037;-78
2021/12/12 07:28:58;;;;;;;12.63;8.98;;;6.50;99.90;;;;;;5029380;28;20120;-78
2021/12/12 07:31:27;;;;;;;12.98;9.45;;;5.90;99.90;;;;;;5009183;28;20108;-79
2021/12/12 07:33:57;;;;;;;11.13;7.15;;;5.60;99.90;;;;;;5031678;28;20536;-78
2021/12/12 07:36:24;;;;;;;10.80;8.38;;;6.20;99.90;;;;;;5028306;28;20041;-78
2021/12/12 07:38:54;;;;;;;11.82;8.13;;;6.40;99.90;;;;;;5013078;28;20041;-79
2021/12/12 07:41:25;;;;;;;13.23;9.60;;;5.60;99.90;;;;;;5018162;28;20036;-78
2021/12/12 07:43:51;;;;;;;11.50;8.50;;;5.60;99.90;;;;;;5021453;28;20171;-78
2021/12/12 07:46:18;;;;;;;15.50;11.13;;;5.60;99.90;;;;;;5015497;28;20047;-78
2021/12/12 07:48:47;;;;;;;13.85;9.43;;;5.70;99.90;;;;;;5020081;28;20044;-78
2021/12/12 07:51:13;;;;;;;15.13;9.80;;;5.70;99.90;;;;;;5027178;28;20044;-78
2021/12/12 07:53:40;;;;;;;14.60;10.63;;;5.70;99.90;;;;;;5027684;28;20048;-79
2021/12/12 07:56:06;;;;;;;15.55;9.18;;;5.70;99.90;;;;;;5031556;28;20053;-76
2021/12/12 07:58:32;;;;;;;17.98;11.48;;;5.70;99.90;;;;;;5053728;28;20521;-78
2021/12/12 08:01:00;;;;;;;18.25;12.63;;;5.70;99.90;;;;;;5059464;28;20595;-78
2021/12/12 08:03:32;;;;;;;13.80;9.50;;;5.70;99.90;;;;;;5028229;28;20032;-78
2021/12/12 08:06:00;;;;;;;15.85;11.57;;;5.80;99.90;;;;;;5057582;28;20063;-78
2021/12/12 08:08:27;;;;;;;17.25;11.90;;;5.80;99.90;;;;;;5061914;28;20048;-78
2021/12/12 08:10:55;;;;;;;15.75;11.57;;;5.80;99.90;;;;;;5009787;28;20493;-78
2021/12/12 08:13:21;;;;;;;15.60;9.77;;;5.80;99.90;;;;;;5009420;28;20044;-79
2021/12/12 08:15:48;;;;;;;23.75;15.10;;;5.80;99.90;;;;;;5042813;28;20045;-78
2021/12/12 08:18:15;;;;;;;18.65;12.25;;;6.10;99.90;;;;;;5016126;28;20097;-79
2021/12/12 08:20:43;;;;;;;14.45;8.30;;;5.90;99.90;;;;;;5028151;28;20053;-78
2021/12/12 08:23:10;;;;;;;22.33;14.02;;;5.90;99.90;;;;;;5028950;28;20033;-79
2021/12/12 08:25:36;;;;;;;19.83;12.77;;;6.00;99.90;;;;;;5002376;28;20139;-78
2021/12/12 08:28:04;;;;;;;13.25;8.27;;;6.00;99.90;;;;;;5064386;28;20247;-78
2021/12/12 08:30:32;;;;;;;20.45;11.43;;;6.00;99.90;;;;;;5014278;28;20051;-79
2021/12/12 08:32:58;;;;;;;17.40;10.25;;;6.00;99.90;;;;;;5057622;28;20041;-78
2021/12/12 08:35:27;;;;;;;13.23;9.57;;;6.70;99.90;;;;;;5015605;28;20048;-78
2021/12/12 08:37:53;;;;;;;18.55;12.57;;;6.10;99.90;;;;;;5025787;28;20040;-78
2021/12/12 08:40:23;;;;;;;19.88;12.30;;;6.10;99.90;;;;;;5035899;28;20049;-79
2021/12/12 08:42:50;;;;;;;13.98;10.00;;;6.10;99.90;;;;;;5034012;28;20043;-79
2021/12/12 08:45:20;;;;;;;15.20;10.02;;;6.10;99.90;;;;;;5066556;28;20028;-79
2021/12/12 08:47:49;;;;;;;18.63;11.67;;;6.30;99.90;;;;;;5026819;28;20040;-78
2021/12/12 08:50:23;;;;;;;19.45;12.02;;;6.50;99.90;;;;;;5026433;28;20384;-79
2021/12/12 08:52:50;;;;;;;19.88;12.65;;;6.20;99.90;;;;;;5051214;28;20528;-79
2021/12/12 08:55:21;;;;;;;19.55;12.57;;;6.40;99.90;;;;;;5065176;28;20068;-79
2021/12/12 08:58:04;;;;;;;19.38;13.18;;;6.30;99.90;;;;;;5043916;28;20048;-78
2021/12/12 09:00:41;;;;;;;22.27;12.88;;;6.30;99.90;;;;;;5026919;28;20042;-78
2021/12/12 09:03:09;;;;;;;22.20;12.95;;;6.30;99.90;;;;;;5027276;28;20033;-78
2021/12/12 09:05:40;;;;;;;19.83;12.90;;;6.40;99.90;;;;;;5015463;28;20092;-78
2021/12/12 09:08:31;;;;;;;23.38;14.00;;;6.30;99.90;;;;;;5046682;28;20033;-78
2021/12/12 09:11:02;;;;;;;18.90;10.15;;;6.90;99.90;;;;;;5007359;28;20104;-78
2021/12/12 09:13:45;;;;;;;22.92;13.25;;;6.40;99.90;;;;;;5010295;28;20480;-78
2021/12/12 09:16:25;;;;;;;22.42;13.50;;;6.40;99.90;;;;;;5037320;28;20065;-78
2021/12/12 09:19:34;;;;;;;24.27;15.70;;;6.50;99.90;;;;;;5012537;28;20424;-78
2021/12/12 09:22:14;;;;;;;21.98;13.63;;;6.50;99.90;;;;;;5026737;28;20048;-79
2021/12/12 09:25:06;;;;;;;23.40;15.05;;;7.10;99.90;;;;;;5006854;28;20041;-79
2021/12/12 09:27:38;;;;;;;24.75;14.55;;;6.70;99.90;;;;;;5025670;28;20049;-78
2021/12/12 09:30:08;;;;;;;;;;;6.60;99.90;;;;;;5006069;28;20100;-78
2021/12/12 09:32:41;;;;;;;25.67;14.02;;;6.70;99.90;;;;;;5016205;28;19955;-78
2021/12/12 09:35:21;;;;;;;23.55;14.98;;;7.40;99.90;;;;;;5037971;28;20497;-78
2021/12/12 09:38:06;;;;;;;23.50;14.15;;;6.80;99.90;;;;;;5020844;28;20079;-78
2021/12/12 09:40:50;;;;;;;26.75;14.48;;;6.80;99.90;;;;;;4993891;28;20124;-78
2021/12/12 09:43:43;;;;;;;28.58;15.40;;;6.80;99.90;;;;;;5000635;28;20406;-78
2021/12/12 09:46:58;;;;;;;30.20;16.10;;;6.80;99.90;;;;;;5032593;28;20068;-78
2021/12/12 09:53:08;;;;;;;32.10;17.00;;;6.90;99.90;;;;;;5015622;28;20076;-78
2021/12/12 09:55:57;;;;;;;34.10;17.17;;;7.10;99.90;;;;;;4995412;28;20045;-77
2021/12/12 09:58:34;;;;;;;29.33;15.75;;;7.10;99.90;;;;;;5018385;28;20389;-78
2021/12/12 10:01:24;;;;;;;33.60;17.85;;;7.10;99.90;;;;;;4989362;28;20053;-78
2021/12/12 10:04:09;;;;;;;35.55;18.13;;;7.20;99.90;;;;;;5021424;28;20052;-78
2021/12/12 10:06:49;;;;;;;36.53;16.95;;;7.20;99.90;;;;;;5008134;28;20041;-78
2021/12/12 10:09:38;;;;;;;37.40;19.20;;;7.30;99.90;;;;;;5017422;28;20585;-78
2021/12/12 10:12:16;;;;;;;30.67;15.25;;;7.30;99.90;;;;;;4994363;28;20037;-78
2021/12/12 10:14:48;;;;;;;38.42;19.25;;;7.40;99.90;;;;;;5004531;28;20038;-78
2021/12/12 10:17:31;;;;;;;37.25;20.75;;;7.50;99.90;;;;;;5007196;28;20057;-78
2021/12/12 10:20:08;;;;;;;38.38;18.67;;;7.50;99.90;;;;;;5014706;28;20548;-77
2021/12/12 10:22:59;;;;;;;38.15;20.23;;;7.50;99.90;;;;;;4989700;28;20037;-76
2021/12/12 10:25:36;;;;;;;34.45;17.88;;;7.60;99.90;;;;;;4987119;28;20041;-77
2021/12/12 10:28:04;;;;;;;33.25;17.30;;;7.60;99.90;;;;;;5015520;28;20122;-76
2021/12/12 10:30:43;;;;;;;36.25;18.55;;;7.70;99.90;;;;;;4999133;28;20049;-78
2021/12/12 10:33:27;;;;;;;35.85;18.23;;;7.70;99.90;;;;;;5006273;28;20497;-78
2021/12/12 10:36:13;;;;;;;28.52;16.88;;;7.70;99.90;;;;;;5010172;28;20124;-78
2021/12/12 10:39:01;;;;;;;31.30;15.98;;;7.80;99.90;;;;;;5016350;28;20041;-78
2021/12/12 10:41:39;;;;;;;38.97;18.50;;;7.80;99.90;;;;;;5013790;28;20437;-78
2021/12/12 10:44:16;;;;;;;31.27;16.42;;;8.10;99.90;;;;;;5045882;28;20033;-78
2021/12/12 10:46:54;;;;;;;36.10;18.40;;;7.90;99.90;;;;;;5003773;28;20048;-78
2021/12/12 10:49:31;;;;;;;32.05;18.42;;;7.90;99.90;;;;;;5005769;28;20089;-78
2021/12/12 10:52:07;;;;;;;32.55;16.83;;;7.90;99.90;;;;;;4992567;28;20049;-78
2021/12/12 10:54:52;;;;;;;32.55;16.38;;;8.00;99.90;;;;;;5025676;28;20045;-77
2021/12/12 10:57:23;;;;;;;27.30;15.05;;;8.10;99.90;;;;;;5071817;28;20148;-77
2021/12/12 11:00:05;;;;;;;31.13;16.65;;;8.00;99.90;;;;;;5041174;28;20044;-77
2021/12/12 11:02:36;;;;;;;25.58;13.30;;;8.10;99.90;;;;;;5058794;28;20037;-77
2021/12/12 11:05:11;;;;;;;30.17;17.42;;;8.20;99.90;;;;;;5079941;28;20041;-77
2021/12/12 11:07:43;;;;;;;30.15;16.38;;;8.10;99.90;;;;;;5066044;28;20130;-77
2021/12/12 11:10:20;;;;;;;34.08;17.42;;;8.10;99.90;;;;;;5086835;28;20036;-78
2021/12/12 11:12:52;;;;;;;35.47;17.15;;;8.20;99.90;;;;;;5068821;28;20407;-78
2021/12/12 11:15:29;;;;;;;29.02;14.43;;;8.20;99.90;;;;;;5037749;28;20052;-78
2021/12/12 11:18:03;;;;;;;31.98;18.13;;;8.20;99.90;;;;;;5031286;28;20033;-77
2021/12/12 11:20:42;;;;;;;30.08;17.10;;;8.20;99.90;;;;;;5083889;28;20071;-77
2021/12/12 11:23:19;;;;;;;31.15;16.77;;;8.20;99.90;;;;;;5085507;28;20605;-77
2021/12/12 11:25:56;;;;;;;27.48;14.82;;;8.20;99.90;;;;;;5057290;28;20053;-77
2021/12/12 11:28:35;;;;;;;27.75;14.98;;;8.30;99.90;;;;;;5052157;28;20496;-77
2021/12/12 11:31:11;;;;;;;27.33;16.17;;;8.30;99.90;;;;;;5030196;28;20124;-77
2021/12/12 11:33:37;;;;;;;28.67;16.38;;;8.30;99.90;;;;;;5092730;28;20120;-77
2021/12/12 11:36:08;;;;;;;25.67;13.00;;;9.40;99.90;;;;;;5035744;28;20037;-77
2021/12/12 11:38:51;;;;;;;26.25;15.45;;;8.40;99.90;;;;;;5050122;28;20507;-77
2021/12/12 11:41:18;;;;;;;23.33;13.50;;;8.40;99.90;;;;;;5032619;28;20044;-78
2021/12/12 11:44:15;;;;;;;22.65;13.25;;;8.50;99.90;;;;;;5095704;28;20039;-78
2021/12/12 11:46:59;;;;;;;21.98;12.65;;;8.50;99.90;;;;;;5048805;28;20055;-78
2021/12/12 11:49:43;;;;;;;27.45;15.25;;;8.60;99.90;;;;;;5052240;28;20047;-78
2021/12/12 11:52:14;;;;;;;22.30;13.30;;;8.60;99.90;;;;;;5049661;28;20123;-78
2021/12/12 11:54:56;;;;;;;24.13;12.93;;;8.50;99.90;;;;;;5034216;28;20119;-78
2021/12/12 11:57:26;;;;;;;21.45;13.10;;;8.50;99.90;;;;;;5032686;28;20057;-78
2021/12/12 12:00:14;;;;;;;25.17;13.25;;;8.50;99.90;;;;;;5048074;28;20033;-78
2021/12/12 12:03:08;;;;;;;26.20;14.18;;;8.60;99.90;;;;;;5025844;28;20043;-78
2021/12/12 12:05:54;;;;;;;23.88;13.45;;;8.60;99.90;;;;;;5047916;28;20036;-78
2021/12/12 12:08:58;;;;;;;24.52;14.43;;;8.60;99.90;;;;;;5041179;28;20127;-78
2021/12/12 12:12:02;;;;;;;24.45;14.60;;;8.60;99.90;;;;;;5054485;28;20135;-78
2021/12/12 12:14:39;;;;;;;25.50;15.35;;;8.70;99.90;;;;;;5077185;28;20064;-78
2021/12/12 12:17:09;;;;;;;23.35;12.45;;;8.70;99.90;;;;;;5047315;28;20115;-78
2021/12/12 12:19:56;;;;;;;30.60;14.90;;;8.70;99.90;;;;;;5087063;28;20037;-78
2021/12/12 12:22:50;;;;;;;27.17;14.90;;;8.70;99.90;;;;;;5046851;28;20045;-78
2021/12/12 12:28:50;;;;;;;22.65;13.95;;;8.90;99.90;;;;;;5045098;28;20182;-78
2021/12/12 12:31:36;;;;;;;25.95;14.48;;;8.80;99.90;;;;;;5068655;28;20040;-78
2021/12/12 12:34:40;;;;;;;20.80;11.82;;;8.80;99.90;;;;;;5081123;28;20036;-78
2021/12/12 12:37:38;;;;;;;26.55;14.35;;;8.90;99.90;;;;;;5024502;28;20045;-78
2021/12/12 12:40:40;;;;;;;26.33;13.57;;;8.90;99.90;;;;;;5074296;28;20123;-78
2021/12/12 12:43:43;;;;;;;26.70;14.02;;;8.90;99.90;;;;;;5068061;28;20488;-78
2021/12/12 12:46:43;;;;;;;23.35;13.23;;;8.90;99.90;;;;;;5065955;28;20040;-78
2021/12/12 12:49:46;;;;;;;26.17;14.63;;;8.90;99.90;;;;;;5085954;28;20043;-78
2021/12/12 12:52:21;;;;;;;24.83;11.73;;;9.00;99.90;;;;;;5042724;28;20045;-78
2021/12/12 12:54:59;;;;;;;28.75;14.57;;;8.90;99.90;;;;;;5042769;28;20048;-78
2021/12/12 12:57:25;;;;;;;33.97;16.67;;;9.20;99.90;;;;;;5051087;28;20053;-78
2021/12/12 12:59:55;;;;;;;31.55;15.73;;;9.00;99.90;;;;;;5036536;28;20079;-78
2021/12/12 13:02:23;;;;;;;26.90;14.30;;;9.00;99.90;;;;;;5046961;28;20049;-78
2021/12/12 13:05:07;;;;;;;24.10;13.32;;;9.00;99.90;;;;;;5094509;28;20097;-78
2021/12/12 13:08:30;;;;;;;28.65;15.48;;;9.20;99.90;;;;;;5042610;28;20043;-78
2021/12/12 13:10:59;;;;;;;28.95;16.13;;;9.00;99.90;;;;;;5030612;28;20052;-78
2021/12/12 13:14:03;;;;;;;31.77;16.52;;;9.10;99.90;;;;;;5084068;28;20041;-78
2021/12/12 13:17:01;;;;;;;36.85;18.80;;;9.30;99.90;;;;;;5068045;28;20045;-78
2021/12/12 13:19:48;;;;;;;33.03;18.63;;;9.30;99.90;;;;;;5068938;28;20053;-78
2021/12/12 13:22:35;;;;;;;34.65;18.95;;;9.40;99.90;;;;;;5065632;28;20036;-78
2021/12/12 13:25:11;;;;;;;34.97;19.48;;;9.30;99.90;;;;;;5040634;28;20072;-78
2021/12/12 13:28:17;;;;;;;34.55;17.67;;;9.30;99.90;;;;;;5051679;28;20028;-78
2021/12/12 13:31:12;;;;;;;30.10;16.55;;;8.80;99.90;;;;;;5047817;28;20040;-78
2021/12/12 13:34:14;;;;;;;41.50;21.13;;;9.30;99.90;;;;;;5053064;28;20076;-78
2021/12/12 13:36:46;;;;;;;26.33;14.48;;;9.30;99.90;;;;;;5038697;28;20045;-78
2021/12/12 13:39:49;;;;;;;31.67;17.95;;;9.60;99.90;;;;;;5034643;28;20040;-78
2021/12/12 13:42:45;;;;;;;37.67;20.27;;;9.20;99.90;;;;;;5051972;28;20044;-78